Time;durP1;ratioP1;P1;durP2;ratioP2;P2;SDS_P1;SDS_P2;PMS_P1;PMS_P2;Temp;Humidity;BMP_temperature;BMP_pressure;BME280_temperature;BME280_humidity;BME280_pressure;Samples;Min_cycle;Max_cycle;Signal;HPM_P1;HPM_P2
2022/09/16 00:00:13;;;;;;;1.52;1.10;;;17.90;99.90;;;;;;6237473;22;20263;-72
2022/09/16 00:02:38;;;;;;;1.10;1.00;;;17.90;99.90;;;;;;6262356;22;20087;-73
2022/09/16 00:05:04;;;;;;;1.00;1.00;;;17.80;99.90;;;;;;6266053;22;20023;-74
2022/09/16 00:07:30;;;;;;;1.30;1.20;;;17.70;99.90;;;;;;6258136;22;20218;-72
2022/09/16 00:09:56;;;;;;;1.65;1.20;;;17.70;99.90;;;;;;6259408;22;20000;-72
2022/09/16 00:12:21;;;;;;;2.17;1.20;;;17.60;99.90;;;;;;6259587;22;20120;-72
2022/09/16 00:14:47;;;;;;;1.90;1.02;;;17.60;99.90;;;;;;6237256;22;20016;-72
2022/09/16 00:17:13;;;;;;;1.45;1.20;;;17.60;99.90;;;;;;6260299;22;19999;-77
2022/09/16 00:19:39;;;;;;;1.02;1.00;;;17.50;99.90;;;;;;6262246;22;20003;-74
2022/09/16 00:22:04;;;;;;;4.00;1.85;;;17.50;99.90;;;;;;6264612;22;20000;-75
2022/09/16 00:24:30;;;;;;;1.70;0.95;;;17.50;99.90;;;;;;6262173;22;20091;-75
2022/09/16 00:26:56;;;;;;;0.93;0.93;;;17.50;99.90;;;;;;6263572;22;20023;-77
2022/09/16 00:29:21;;;;;;;1.42;1.08;;;17.40;99.90;;;;;;6265000;22;20049;-80
2022/09/16 00:31:47;;;;;;;1.10;1.08;;;17.30;99.90;;;;;;6263559;22;20007;-77
2022/09/16 00:34:13;;;;;;;1.45;0.77;;;17.30;99.90;;;;;;6259949;22;20463;-77
2022/09/16 00:36:38;;;;;;;3.70;1.08;;;17.30;99.90;;;;;;6261393;22;20208;-75
2022/09/16 00:39:04;;;;;;;0.70;0.70;;;17.30;99.90;;;;;;6263965;22;20379;-80
2022/09/16 00:41:35;;;;;;;0.93;0.90;;;17.30;99.90;;;;;;6265950;22;20325;-80
2022/09/16 00:44:39;;;;;;;1.17;1.08;;;17.30;99.90;;;;;;6263835;22;20011;-78
2022/09/16 00:47:05;;;;;;;1.30;1.20;;;17.20;99.90;;;;;;6208496;22;20039;-79
2022/09/16 00:49:31;;;;;;;2.45;1.23;;;17.30;99.90;;;;;;6259673;22;20250;-74
2022/09/16 00:52:01;;;;;;;1.40;1.30;;;17.40;99.90;;;;;;6263320;22;20680;-74
2022/09/16 00:54:29;;;;;;;1.80;1.17;;;17.40;99.90;;;;;;6263318;22;20007;-74
2022/09/16 00:56:58;;;;;;;2.38;1.08;;;17.50;99.90;;;;;;6265373;22;20000;-74
2022/09/16 00:59:31;;;;;;;1.58;1.25;;;17.40;99.90;;;;;;6264215;22;20079;-74
2022/09/16 01:02:01;;;;;;;1.40;1.30;;;17.40;99.90;;;;;;6263191;22;20430;-74
2022/09/16 01:04:31;;;;;;;3.95;1.40;;;17.30;99.90;;;;;;6262427;22;20599;-72
2022/09/16 01:06:58;;;;;;;1.20;1.10;;;17.30;99.90;;;;;;6263080;22;20007;-72
2022/09/16 01:09:25;;;;;;;1.10;1.10;;;17.30;99.90;;;;;;6263622;22;20007;-74
2022/09/16 01:11:51;;;;;;;1.55;1.45;;;17.30;99.90;;;;;;6261859;22;19996;-74
2022/09/16 01:17:28;;;;;;;1.48;1.38;;;17.30;99.90;;;;;;6258095;22;21002;-75
2022/09/16 01:20:25;;;;;;;1.95;1.85;;;17.40;99.90;;;;;;6258977;22;20019;-74
2022/09/16 01:23:12;;;;;;;4.65;1.60;;;17.40;99.90;;;;;;6258087;22;20027;-74
2022/09/16 01:26:09;;;;;;;2.35;1.52;;;17.40;99.90;;;;;;6235592;22;20027;-74
2022/09/16 01:28:40;;;;;;;2.22;1.70;;;17.40;99.90;;;;;;6264704;22;20489;-74
2022/09/16 01:31:37;;;;;;;4.22;1.52;;;17.50;99.90;;;;;;6262819;22;20280;-74
2022/09/16 01:34:03;;;;;;;1.70;1.52;;;17.50;99.90;;;;;;6264909;22;20011;-72
2022/09/16 01:37:01;;;;;;;1.67;1.58;;;17.40;99.90;;;;;;6261589;22;20091;-75
2022/09/16 01:39:29;;;;;;;1.60;1.50;;;17.40;99.90;;;;;;6259894;22;20473;-74
2022/09/16 01:42:01;;;;;;;2.05;1.58;;;17.20;99.90;;;;;;6262185;22;20007;-74
2022/09/16 01:44:45;;;;;;;1.55;1.45;;;17.20;99.90;;;;;;6262883;22;20014;-73
2022/09/16 01:47:33;;;;;;;1.77;1.67;;;17.00;99.90;;;;;;6258557;22;20008;-74
2022/09/16 01:50:04;;;;;;;4.07;1.98;;;16.90;99.90;;;;;;6260695;22;20360;-73
2022/09/16 01:52:30;;;;;;;4.45;1.70;;;16.80;99.90;;;;;;6263144;22;20023;-75
2022/09/16 01:55:03;;;;;;;4.22;1.90;;;16.70;99.90;;;;;;6265806;22;20199;-76
2022/09/16 01:58:06;;;;;;;1.83;1.60;;;16.60;99.90;;;;;;6264750;22;19999;-76
2022/09/16 02:00:32;;;;;;;;;;;16.60;99.90;;;;;;6262885;22;20216;-76
2022/09/16 02:03:09;;;;;;;2.10;1.92;;;16.60;99.90;;;;;;6259744;22;20340;-76
2022/09/16 02:06:03;;;;;;;2.35;1.98;;;16.50;99.90;;;;;;6236495;22;20007;-76
2022/09/16 02:08:39;;;;;;;2.30;2.10;;;16.50;99.90;;;;;;6264615;22;20007;-75
2022/09/16 02:11:09;;;;;;;4.45;1.90;;;16.50;99.90;;;;;;6263081;22;20007;-74
2022/09/16 02:13:40;;;;;;;2.33;2.08;;;16.40;99.90;;;;;;6264364;22;20434;-74
2022/09/16 02:16:13;;;;;;;3.53;2.35;;;16.30;99.90;;;;;;6260701;22;20259;-74
2022/09/16 02:18:43;;;;;;;3.97;3.33;;;16.30;99.90;;;;;;6257698;22;20007;-75
2022/09/16 02:21:14;;;;;;;2.70;2.40;;;16.20;99.90;;;;;;6262517;22;20053;-75
2022/09/16 02:23:45;;;;;;;2.40;2.00;;;16.20;99.90;;;;;;6261208;22;20008;-74
2022/09/16 02:26:16;;;;;;;3.57;2.80;;;16.20;99.90;;;;;;6261171;22;20004;-74
2022/09/16 02:28:45;;;;;;;2.58;2.38;;;16.20;99.90;;;;;;6264144;22;20024;-76
2022/09/16 02:31:12;;;;;;;2.92;2.10;;;16.30;99.90;;;;;;6261735;22;20136;-76
2022/09/16 02:34:06;;;;;;;3.05;2.75;;;16.30;99.90;;;;;;6257969;22;20039;-73
2022/09/16 02:36:34;;;;;;;4.38;2.33;;;16.40;99.90;;;;;;6246812;22;20031;-75
2022/09/16 02:39:08;;;;;;;3.95;3.00;;;16.40;99.90;;;;;;6264911;22;20004;-74
2022/09/16 02:41:38;;;;;;;4.25;2.40;;;16.50;99.90;;;;;;6264254;22;20004;-74
2022/09/16 02:44:04;;;;;;;4.13;3.00;;;16.50;99.90;;;;;;6264274;22;20032;-74
2022/09/16 02:46:52;;;;;;;5.15;2.70;;;16.50;99.90;;;;;;6260270;22;20449;-74
2022/09/16 02:49:48;;;;;;;3.50;2.10;;;16.50;99.90;;;;;;6260890;22;20053;-74
2022/09/16 02:52:22;;;;;;;4.25;2.90;;;16.50;99.90;;;;;;6264132;22;20547;-76
2022/09/16 02:55:36;;;;;;;2.08;1.90;;;16.50;99.90;;;;;;6266842;22;20022;-76
2022/09/16 02:58:04;;;;;;;4.43;2.47;;;16.50;99.90;;;;;;6217003;22;20003;-75
2022/09/16 03:00:35;;;;;;;2.67;1.95;;;16.50;99.90;;;;;;6263202;22;20039;-75
2022/09/16 03:03:01;;;;;;;2.53;2.28;;;16.60;99.90;;;;;;6264646;22;20007;-75
2022/09/16 03:05:28;;;;;;;2.83;2.30;;;16.60;99.90;;;;;;6262884;22;20012;-75
2022/09/16 03:07:54;;;;;;;2.28;2.15;;;16.60;99.90;;;;;;6264393;22;20071;-75
2022/09/16 03:10:24;;;;;;;3.97;2.75;;;16.70;99.90;;;;;;6264503;22;20049;-76
2022/09/16 03:12:53;;;;;;;2.80;2.60;;;16.70;99.90;;;;;;6262603;22;20011;-73
2022/09/16 03:15:47;;;;;;;2.88;2.40;;;16.60;99.90;;;;;;6266096;22;20326;-75
2022/09/16 03:18:37;;;;;;;3.00;2.40;;;16.60;99.90;;;;;;6260392;22;20318;-75
2022/09/16 03:21:05;;;;;;;2.67;2.40;;;16.50;99.90;;;;;;6260043;22;20122;-76
2022/09/16 03:23:37;;;;;;;3.85;2.70;;;16.40;99.90;;;;;;6261777;22;20003;-76
2022/09/16 03:26:18;;;;;;;3.03;2.72;;;16.40;99.90;;;;;;6261283;22;20125;-75
2022/09/16 03:28:46;;;;;;;3.08;2.53;;;16.40;99.90;;;;;;6264788;22;20021;-75
2022/09/16 03:31:21;;;;;;;3.10;2.53;;;16.40;99.90;;;;;;6262178;22;20008;-74
2022/09/16 03:33:54;;;;;;;3.95;3.30;;;16.40;99.90;;;;;;6237331;22;20085;-74
2022/09/16 03:36:32;;;;;;;3.22;2.67;;;16.30;99.90;;;;;;6237239;22;20468;-76
2022/09/16 03:38:59;;;;;;;5.22;3.10;;;16.30;99.90;;;;;;6263504;22;20081;-76
2022/09/16 03:41:28;;;;;;;3.40;3.10;;;16.30;99.90;;;;;;6262533;22;20003;-75
2022/09/16 03:43:56;;;;;;;4.18;2.72;;;16.20;99.90;;;;;;6265510;22;20011;-76
2022/09/16 03:46:22;;;;;;;3.78;3.25;;;16.20;99.90;;;;;;6261480;22;20428;-75
2022/09/16 03:48:48;;;;;;;3.50;3.20;;;16.10;99.90;;;;;;6260486;22;20503;-75
2022/09/16 03:51:14;;;;;;;3.70;3.30;;;16.10;99.90;;;;;;6261263;22;20004;-75
2022/09/16 03:53:40;;;;;;;3.83;3.10;;;16.00;99.90;;;;;;6264923;22;20059;-76
2022/09/16 03:56:05;;;;;;;4.07;2.80;;;16.00;99.90;;;;;;6264413;22;20022;-75
2022/09/16 03:58:31;;;;;;;2.90;2.70;;;16.00;99.90;;;;;;6263417;22;20053;-75
2022/09/16 04:00:57;;;;;;;4.30;3.10;;;16.00;99.90;;;;;;6263938;22;20055;-75
2022/09/16 04:03:22;;;;;;;3.40;2.85;;;16.00;99.90;;;;;;6262337;22;20010;-75
2022/09/16 04:05:55;;;;;;;4.40;3.30;;;16.00;99.90;;;;;;6263955;22;19999;-75
2022/09/16 04:08:21;;;;;;;8.15;3.50;;;16.00;99.90;;;;;;6261007;22;20336;-75
2022/09/16 04:10:58;;;;;;;3.95;3.03;;;16.10;99.90;;;;;;6264358;22;20008;-75
2022/09/16 04:13:24;;;;;;;4.97;3.47;;;16.00;99.90;;;;;;6262337;22;20019;-74
2022/09/16 04:15:50;;;;;;;5.03;3.85;;;16.00;99.90;;;;;;6235896;22;20004;-76
2022/09/16 04:18:16;;;;;;;3.38;3.05;;;16.00;99.90;;;;;;6261670;22;20014;-75
2022/09/16 04:20:41;;;;;;;4.47;4.07;;;16.10;99.90;;;;;;6259968;22;20000;-75
2022/09/16 04:23:07;;;;;;;3.85;3.10;;;16.00;99.90;;;;;;6262052;22;20058;-75
2022/09/16 04:25:33;;;;;;;4.28;3.88;;;16.10;99.90;;;;;;6261091;22;20004;-75
2022/09/16 04:27:59;;;;;;;4.00;3.50;;;16.10;99.90;;;;;;6258705;22;20038;-76
2022/09/16 04:30:25;;;;;;;3.72;3.42;;;16.10;99.90;;;;;;6259332;22;20004;-75
2022/09/16 04:32:55;;;;;;;6.07;4.63;;;16.10;99.90;;;;;;6261389;22;20004;-75
2022/09/16 04:35:21;;;;;;;6.10;3.95;;;16.10;99.90;;;;;;6263548;22;20008;-76
2022/09/16 04:37:47;;;;;;;5.80;3.90;;;16.00;99.90;;;;;;6261531;22;20464;-76
2022/09/16 04:40:12;;;;;;;6.38;3.85;;;16.00;99.90;;;;;;6233536;22;20007;-76
2022/09/16 04:42:38;;;;;;;5.63;3.95;;;16.00;99.90;;;;;;6235047;22;20113;-75
2022/09/16 04:45:04;;;;;;;4.32;3.78;;;16.00;99.90;;;;;;6234090;22;20014;-74
2022/09/16 04:47:30;;;;;;;4.22;3.67;;;16.00;99.90;;;;;;6236544;22;20095;-73
2022/09/16 04:49:56;;;;;;;5.70;3.78;;;16.00;99.90;;;;;;6232272;22;20334;-77
2022/09/16 04:52:21;;;;;;;3.47;3.15;;;16.00;99.90;;;;;;6253385;22;20011;-75
2022/09/16 04:54:47;;;;;;;7.82;4.50;;;16.00;99.90;;;;;;6257605;22;20376;-74
2022/09/16 04:57:13;;;;;;;5.57;4.20;;;16.00;99.90;;;;;;6232268;22;20038;-75
2022/09/16 04:59:38;;;;;;;6.15;4.10;;;16.00;99.90;;;;;;6226507;22;20077;-75
2022/09/16 05:02:04;;;;;;;6.47;4.65;;;16.00;99.90;;;;;;6260151;22;20740;-73
2022/09/16 05:04:30;;;;;;;24.10;9.55;;;16.00;99.90;;;;;;6264459;22;20004;-68
2022/09/16 05:06:55;;;;;;;11.73;5.72;;;16.00;99.90;;;;;;6263123;22;20433;-67
2022/09/16 05:09:21;;;;;;;4.90;3.90;;;16.10;99.90;;;;;;6238188;22;20004;-73
2022/09/16 05:11:47;;;;;;;4.80;3.83;;;16.10;99.90;;;;;;6263971;22;20007;-74
2022/09/16 05:14:16;;;;;;;4.68;3.95;;;16.10;99.90;;;;;;6263463;22;20019;-74
2022/09/16 05:16:42;;;;;;;4.97;3.80;;;16.10;99.90;;;;;;6259988;22;20000;-74
2022/09/16 05:19:11;;;;;;;5.40;3.92;;;16.20;99.90;;;;;;6263663;22;20035;-75
2022/09/16 05:21:37;;;;;;;5.15;3.90;;;16.20;99.90;;;;;;6258790;22;20007;-74
2022/09/16 05:24:07;;;;;;;7.53;3.85;;;16.10;99.90;;;;;;6264875;22;20015;-74
2022/09/16 05:26:34;;;;;;;4.15;3.63;;;16.20;99.90;;;;;;6264553;22;20003;-75
2022/09/16 05:29:13;;;;;;;6.13;4.00;;;16.30;99.90;;;;;;6239387;22;20020;-70
2022/09/16 05:31:41;;;;;;;4.63;3.33;;;16.30;99.90;;;;;;6267136;22;20075;-74
2022/09/16 05:34:15;;;;;;;6.38;3.20;;;16.40;99.90;;;;;;6266953;22;20019;-75
2022/09/16 05:36:42;;;;;;;4.50;3.70;;;16.40;99.90;;;;;;6268887;22;20008;-74
2022/09/16 05:39:10;;;;;;;6.97;4.20;;;16.50;99.90;;;;;;6267609;22;20337;-75
2022/09/16 05:41:36;;;;;;;4.57;3.78;;;16.60;99.90;;;;;;6268345;22;19995;-75
2022/09/16 05:44:02;;;;;;;5.55;3.80;;;16.70;99.90;;;;;;6236335;22;20016;-76
2022/09/16 05:46:28;;;;;;;4.10;3.65;;;16.60;99.90;;;;;;6267437;22;20050;-75
2022/09/16 05:48:54;;;;;;;4.97;4.18;;;16.70;99.90;;;;;;6266078;22;20364;-76
2022/09/16 05:51:22;;;;;;;5.95;3.60;;;16.70;99.90;;;;;;6263302;22;20472;-76
2022/09/16 05:53:49;;;;;;;6.00;3.17;;;16.90;99.90;;;;;;6265058;22;20112;-76
2022/09/16 05:56:24;;;;;;;4.68;3.10;;;17.00;99.90;;;;;;6263835;22;20004;-76
2022/09/16 05:58:51;;;;;;;4.65;3.78;;;17.10;99.90;;;;;;6265337;22;20015;-75
2022/09/16 06:01:22;;;;;;;4.18;3.55;;;17.30;99.90;;;;;;6265445;22;20031;-76
2022/09/16 06:03:49;;;;;;;5.00;3.80;;;17.40;99.90;;;;;;6267911;22;20014;-77
2022/09/16 06:06:38;;;;;;;5.60;3.60;;;17.50;99.90;;;;;;6236540;22;20031;-76
2022/09/16 06:09:18;;;;;;;6.05;4.13;;;17.50;99.90;;;;;;6265178;22;20004;-76
2022/09/16 06:11:46;;;;;;;3.58;3.20;;;17.50;99.90;;;;;;6268445;22;20081;-76
2022/09/16 06:14:12;;;;;;;6.25;3.65;;;17.60;99.90;;;;;;6268134;22;20065;-76
2022/09/16 06:16:38;;;;;;;8.13;5.85;;;17.60;99.90;;;;;;6265086;22;20030;-76
2022/09/16 06:19:09;;;;;;;5.60;3.88;;;17.70;99.90;;;;;;6234382;22;20011;-75
2022/09/16 06:21:35;;;;;;;5.38;3.67;;;17.90;99.90;;;;;;6257997;22;19999;-75
2022/09/16 06:24:02;;;;;;;6.18;3.30;;;18.00;99.90;;;;;;6262265;22;20400;-75
2022/09/16 06:26:28;;;;;;;5.47;2.88;;;18.00;99.90;;;;;;6263515;22;20004;-73
2022/09/16 06:28:54;;;;;;;15.48;4.80;;;18.00;99.90;;;;;;6260627;22;20477;-74
2022/09/16 06:31:25;;;;;;;17.75;4.78;;;18.20;99.90;;;;;;6254875;22;20035;-74
2022/09/16 06:33:51;;;;;;;3.83;3.53;;;18.30;99.90;;;;;;6259786;22;20293;-74
2022/09/16 06:36:23;;;;;;;6.53;3.13;;;18.50;99.90;;;;;;6258988;22;20521;-74
2022/09/16 06:38:50;;;;;;;;;;;18.60;99.90;;;;;;6263329;22;20429;-75
2022/09/16 06:41:17;;;;;;;6.53;3.22;;;18.70;99.90;;;;;;6263150;22;19956;-74
2022/09/16 06:43:43;;;;;;;5.82;2.85;;;18.60;99.90;;;;;;6260205;22;20010;-74
2022/09/16 06:46:15;;;;;;;3.13;2.80;;;18.60;99.90;;;;;;6263089;22;20531;-74
2022/09/16 06:48:42;;;;;;;3.15;2.13;;;18.50;99.90;;;;;;6261603;22;20015;-74
2022/09/16 06:51:25;;;;;;;3.70;2.45;;;18.50;99.90;;;;;;6259077;22;20003;-74
2022/09/16 06:53:52;;;;;;;2.67;2.47;;;18.40;99.90;;;;;;6257416;22;20337;-74
2022/09/16 06:56:20;;;;;;;2.65;1.95;;;18.40;99.90;;;;;;6264148;22;19999;-74
2022/09/16 06:58:48;;;;;;;3.25;2.28;;;18.30;99.90;;;;;;6262720;22;20010;-74
2022/09/16 07:01:16;;;;;;;3.50;2.30;;;18.30;99.90;;;;;;6263240;22;20027;-74
2022/09/16 07:03:44;;;;;;;3.45;2.28;;;18.30;99.90;;;;;;6263546;22;20000;-74
2022/09/16 07:06:12;;;;;;;3.22;2.63;;;18.30;99.90;;;;;;6263024;22;19999;-74
2022/09/16 07:08:38;;;;;;;4.70;2.13;;;18.30;99.90;;;;;;6234982;22;20007;-74
2022/09/16 07:11:25;;;;;;;4.90;2.78;;;18.40;99.90;;;;;;6261374;22;20010;-74
2022/09/16 07:13:51;;;;;;;3.17;2.85;;;18.40;99.90;;;;;;6264232;22;20011;-74
2022/09/16 07:16:20;;;;;;;3.65;2.40;;;18.40;99.90;;;;;;6261815;22;20010;-75
2022/09/16 07:18:47;;;;;;;5.25;3.20;;;18.50;99.90;;;;;;6264101;22;20088;-74
2022/09/16 07:21:18;;;;;;;4.47;2.83;;;18.60;99.90;;;;;;6263507;22;20074;-75
2022/09/16 07:23:45;;;;;;;3.30;2.10;;;18.70;99.90;;;;;;6258898;22;20008;-74
2022/09/16 07:26:14;;;;;;;2.80;1.80;;;18.60;99.90;;;;;;6256734;22;20034;-74
2022/09/16 07:28:41;;;;;;;2.88;1.80;;;18.40;99.90;;;;;;6258138;22;20027;-74
2022/09/16 07:31:10;;;;;;;1.60;1.30;;;18.40;99.90;;;;;;6258530;22;20010;-75
2022/09/16 07:33:38;;;;;;;4.93;1.67;;;18.40;99.90;;;;;;6259974;22;20412;-74
2022/09/16 07:36:05;;;;;;;2.58;1.70;;;18.40;99.90;;;;;;6259659;22;20000;-73
2022/09/16 07:38:32;;;;;;;2.03;1.55;;;18.50;99.90;;;;;;6260503;22;20007;-73
2022/09/16 07:41:12;;;;;;;4.97;1.48;;;18.60;99.90;;;;;;6259278;22;20000;-73
2022/09/16 07:43:39;;;;;;;2.90;1.60;;;18.50;99.90;;;;;;6252410;22;20086;-73
2022/09/16 07:46:06;;;;;;;1.83;1.10;;;18.40;99.90;;;;;;6256157;22;20047;-74
2022/09/16 07:48:33;;;;;;;3.65;1.50;;;18.40;99.90;;;;;;6252818;22;20046;-74
2022/09/16 07:51:01;;;;;;;1.58;1.45;;;18.40;99.90;;;;;;6253028;22;20318;-74
2022/09/16 07:53:28;;;;;;;1.50;1.10;;;18.40;99.90;;;;;;6254906;22;20016;-73
2022/09/16 07:56:04;;;;;;;1.45;1.05;;;18.30;99.90;;;;;;6259906;22;20822;-74
2022/09/16 07:58:30;;;;;;;4.95;1.50;;;18.30;99.90;;;;;;6230132;22;20012;-75
2022/09/16 08:00:56;;;;;;;1.80;1.02;;;18.20;99.90;;;;;;6260125;22;20007;-75
2022/09/16 08:03:21;;;;;;;1.60;1.50;;;18.20;99.90;;;;;;6259014;22;20488;-75
2022/09/16 08:05:47;;;;;;;2.25;1.40;;;18.20;99.90;;;;;;6261063;22;20341;-75
2022/09/16 08:08:13;;;;;;;2.10;1.08;;;18.20;99.90;;;;;;6254331;22;20046;-75
2022/09/16 08:10:38;;;;;;;2.72;1.17;;;18.10;99.90;;;;;;6258813;22;19999;-74
2022/09/16 08:13:05;;;;;;;4.13;1.65;;;18.10;99.90;;;;;;6253459;22;20011;-74
2022/09/16 08:15:31;;;;;;;2.92;1.20;;;18.10;99.90;;;;;;6259094;22;19999;-74
2022/09/16 08:17:57;;;;;;;1.90;1.33;;;18.10;99.90;;;;;;6259255;22;20053;-74
2022/09/16 08:20:24;;;;;;;3.25;1.15;;;18.20;99.90;;;;;;6263157;22;20003;-74
2022/09/16 08:22:49;;;;;;;2.58;1.00;;;18.20;99.90;;;;;;6257781;22;20008;-75
2022/09/16 08:25:15;;;;;;;1.42;1.00;;;18.10;99.90;;;;;;6264056;22;20325;-75
2022/09/16 08:27:41;;;;;;;2.28;1.00;;;18.10;99.90;;;;;;6255508;22;20441;-75
2022/09/16 08:30:07;;;;;;;3.13;1.13;;;18.20;99.90;;;;;;6233172;22;20054;-75
2022/09/16 08:32:33;;;;;;;3.63;1.27;;;18.30;99.90;;;;;;6258110;22;20011;-72
2022/09/16 08:34:58;;;;;;;2.25;1.35;;;18.30;99.90;;;;;;6261816;22;20030;-72
2022/09/16 08:37:24;;;;;;;2.35;1.50;;;18.50;99.90;;;;;;6259997;22;20085;-72
2022/09/16 08:39:50;;;;;;;3.00;1.20;;;18.60;99.90;;;;;;6259606;22;20077;-73
2022/09/16 08:42:48;;;;;;;2.40;0.93;;;18.60;99.90;;;;;;6233357;22;20007;-73
2022/09/16 08:45:40;;;;;;;2.10;0.90;;;18.70;99.90;;;;;;6260335;22;20007;-74
2022/09/16 08:48:28;;;;;;;1.23;0.75;;;18.80;99.90;;;;;;6253778;22;20425;-74
2022/09/16 08:50:57;;;;;;;1.30;0.80;;;18.80;99.90;;;;;;6260560;22;20017;-73
2022/09/16 08:53:30;;;;;;;0.85;0.75;;;18.90;99.90;;;;;;6260936;22;20102;-72
2022/09/16 08:55:56;;;;;;;1.33;0.60;;;19.20;99.90;;;;;;6262776;22;20004;-73
2022/09/16 08:58:23;;;;;;;1.23;0.90;;;19.40;99.90;;;;;;6260494;22;20086;-73
2022/09/16 09:00:58;;;;;;;1.88;0.70;;;19.50;99.90;;;;;;6259288;22;20757;-73
2022/09/16 09:03:32;;;;;;;1.42;0.70;;;19.70;99.90;;;;;;6263404;22;20075;-73
2022/09/16 09:06:00;;;;;;;1.45;0.43;;;19.90;99.90;;;;;;6259479;22;20000;-73
2022/09/16 09:08:32;;;;;;;1.05;0.52;;;20.00;99.90;;;;;;6260984;22;20000;-73
2022/09/16 09:11:42;;;;;;;1.02;0.30;;;20.20;97.60;;;;;;6263768;22;20015;-73
2022/09/16 09:14:34;;;;;;;1.55;0.52;;;20.20;98.50;;;;;;6264852;22;20012;-73
2022/09/16 09:17:08;;;;;;;1.03;0.43;;;20.30;98.50;;;;;;6254271;22;20037;-74
2022/09/16 09:19:56;;;;;;;1.13;0.57;;;20.50;98.40;;;;;;6264539;22;20000;-73
2022/09/16 09:22:27;;;;;;;1.83;0.80;;;20.70;97.70;;;;;;6259768;22;20054;-73
2022/09/16 09:25:06;;;;;;;1.08;0.30;;;20.70;97.60;;;;;;6261931;22;20023;-73
2022/09/16 09:27:52;;;;;;;1.75;0.60;;;20.50;97.00;;;;;;6260544;22;20704;-73
2022/09/16 09:30:24;;;;;;;0.60;0.50;;;20.30;97.10;;;;;;6259023;22;20391;-73
2022/09/16 09:33:01;;;;;;;2.00;0.88;;;20.10;98.10;;;;;;6261421;22;20007;-73
2022/09/16 09:35:33;;;;;;;0.85;0.45;;;20.00;98.10;;;;;;6264667;22;20008;-73
2022/09/16 09:38:14;;;;;;;5.35;1.02;;;19.90;98.00;;;;;;6264844;22;20077;-73
2022/09/16 09:40:46;;;;;;;2.35;0.60;;;19.80;99.00;;;;;;6262597;22;20004;-73
2022/09/16 09:43:32;;;;;;;0.47;0.40;;;19.80;95.70;;;;;;6252560;22;20031;-73
2022/09/16 09:46:12;;;;;;;3.58;1.33;;;19.70;97.20;;;;;;6258787;22;20003;-73
2022/09/16 09:48:56;;;;;;;4.13;0.60;;;19.60;96.40;;;;;;6264199;22;20000;-73
2022/09/16 09:51:31;;;;;;;0.57;0.50;;;19.50;96.80;;;;;;6232935;22;20455;-73
2022/09/16 09:54:26;;;;;;;2.58;0.68;;;19.40;96.90;;;;;;6264083;22;20015;-72
2022/09/16 09:57:05;;;;;;;2.00;0.50;;;19.40;98.30;;;;;;6245995;22;20015;-72
2022/09/16 09:59:48;;;;;;;1.23;0.47;;;19.30;96.60;;;;;;6261493;22;20011;-73
2022/09/16 10:02:16;;;;;;;1.13;0.40;;;19.20;96.90;;;;;;6260959;22;20008;-73
2022/09/16 10:04:42;;;;;;;0.50;0.47;;;19.20;97.80;;;;;;6264099;22;20008;-73
2022/09/16 10:07:10;;;;;;;1.38;0.60;;;19.30;99.90;;;;;;6262174;22;20014;-73
2022/09/16 10:09:48;;;;;;;3.25;0.57;;;19.50;99.70;;;;;;6262629;22;20030;-74
2022/09/16 10:12:29;;;;;;;1.38;0.60;;;19.60;97.20;;;;;;6257450;22;20320;-74
2022/09/16 10:14:55;;;;;;;1.80;0.70;;;19.90;97.90;;;;;;6264325;22;20066;-73
2022/09/16 10:17:20;;;;;;;1.00;0.57;;;20.10;97.10;;;;;;6263763;22;20153;-74
2022/09/16 10:20:04;;;;;;;2.22;1.30;;;20.30;95.80;;;;;;6258758;22;20064;-73
2022/09/16 10:22:32;;;;;;;1.95;0.50;;;20.50;95.00;;;;;;6260993;22;20341;-74
2022/09/16 10:25:05;;;;;;;0.47;0.30;;;20.60;95.80;;;;;;6257245;22;20004;-73
2022/09/16 10:27:36;;;;;;;1.25;0.32;;;20.80;93.80;;;;;;6261814;22;20023;-72
2022/09/16 10:30:21;;;;;;;1.98;0.40;;;21.00;92.30;;;;;;6260504;22;20003;-73
2022/09/16 10:32:54;;;;;;;1.08;0.43;;;21.10;92.50;;;;;;6266830;22;20006;-73
2022/09/16 10:35:24;;;;;;;0.73;0.50;;;21.10;91.60;;;;;;6263296;22;20298;-73
2022/09/16 10:37:53;;;;;;;2.33;0.50;;;21.10;90.70;;;;;;6264187;22;20003;-73
2022/09/16 10:40:22;;;;;;;1.95;0.47;;;21.10;91.70;;;;;;6254815;22;20022;-73
2022/09/16 10:42:49;;;;;;;1.38;0.30;;;21.20;91.40;;;;;;6263448;22;20057;-73
2022/09/16 10:45:27;;;;;;;1.30;0.40;;;21.40;87.10;;;;;;6260531;22;20031;-73
2022/09/16 10:47:56;;;;;;;0.90;0.40;;;21.40;90.30;;;;;;6253264;22;20007;-73
2022/09/16 10:50:23;;;;;;;1.55;0.30;;;21.60;88.80;;;;;;6256666;22;20295;-69
2022/09/16 10:52:49;;;;;;;0.88;0.40;;;21.80;87.40;;;;;;6262705;22;19995;-70
2022/09/16 10:55:34;;;;;;;0.65;0.40;;;21.90;82.00;;;;;;6259690;22;20026;-71
2022/09/16 10:58:18;;;;;;;0.55;0.35;;;21.90;83.50;;;;;;6256403;22;20007;-73
2022/09/16 11:01:02;;;;;;;1.95;0.40;;;21.80;82.10;;;;;;6255974;22;20445;-72
2022/09/16 11:03:48;;;;;;;0.25;0.20;;;21.60;83.70;;;;;;6258820;22;19999;-73
2022/09/16 11:06:25;;;;;;;0.82;0.30;;;21.60;83.50;;;;;;6256191;22;20007;-73
2022/09/16 11:09:00;;;;;;;0.75;0.50;;;21.50;84.10;;;;;;6259738;22;20010;-73
2022/09/16 11:11:38;;;;;;;0.98;0.30;;;21.30;82.90;;;;;;6260841;22;20003;-72
2022/09/16 11:14:31;;;;;;;0.30;0.30;;;21.20;82.60;;;;;;6236418;22;20094;-73
2022/09/16 11:16:59;;;;;;;1.45;0.60;;;21.00;83.70;;;;;;6254205;22;20023;-74
2022/09/16 11:19:43;;;;;;;1.38;0.60;;;20.90;81.10;;;;;;6256774;22;20010;-74
2022/09/16 11:22:19;;;;;;;0.47;0.40;;;20.70;85.10;;;;;;6258905;22;20030;-73
2022/09/16 11:24:59;;;;;;;0.90;0.70;;;20.60;87.80;;;;;;6230007;22;20041;-74
2022/09/16 11:27:46;;;;;;;3.05;0.60;;;20.70;87.60;;;;;;6258548;22;20356;-73
2022/09/16 11:30:23;;;;;;;1.30;0.50;;;20.60;87.30;;;;;;6230096;22;20011;-73
2022/09/16 11:32:48;;;;;;;1.35;1.00;;;20.60;91.20;;;;;;6257155;22;20003;-73
2022/09/16 11:35:52;;;;;;;1.00;0.70;;;20.50;91.50;;;;;;6258008;22;20018;-74
2022/09/16 11:38:37;;;;;;;4.32;0.70;;;20.40;92.20;;;;;;6257528;22;20006;-72
2022/09/16 11:41:09;;;;;;;1.58;1.23;;;20.30;91.20;;;;;;6260088;22;19999;-74
2022/09/16 11:44:09;;;;;;;2.42;0.90;;;20.10;92.00;;;;;;6258026;22;20004;-74
2022/09/16 11:46:43;;;;;;;4.15;0.80;;;20.10;93.10;;;;;;6261680;22;20004;-76
2022/09/16 11:49:18;;;;;;;1.17;0.80;;;20.10;93.00;;;;;;6260327;22;20004;-73
2022/09/16 11:52:06;;;;;;;1.60;0.95;;;20.20;93.50;;;;;;6258957;22;20039;-74
2022/09/16 11:54:32;;;;;;;2.28;0.60;;;20.10;93.10;;;;;;6254582;22;20019;-75
2022/09/16 11:57:11;;;;;;;5.68;0.93;;;20.10;93.90;;;;;;6226176;22;20082;-74
2022/09/16 11:59:40;;;;;;;0.90;0.65;;;20.20;94.00;;;;;;6255575;22;20077;-73
2022/09/16 12:02:14;;;;;;;1.73;0.80;;;20.20;92.80;;;;;;6259740;22;20118;-74
2022/09/16 12:05:00;;;;;;;1.38;0.90;;;20.10;93.70;;;;;;6260476;22;20114;-71
2022/09/16 12:07:38;;;;;;;2.90;0.95;;;20.10;94.60;;;;;;6262900;22;20441;-71
2022/09/16 12:10:15;;;;;;;3.60;0.90;;;20.00;95.70;;;;;;6264158;22;20011;-71
2022/09/16 12:12:57;;;;;;;3.72;1.00;;;20.00;95.80;;;;;;6264002;22;20337;-72
2022/09/16 12:15:36;;;;;;;1.75;0.75;;;20.00;93.70;;;;;;6265701;22;20036;-71
2022/09/16 12:18:20;;;;;;;2.63;1.00;;;20.00;93.90;;;;;;6263528;22;19996;-72
2022/09/16 12:20:50;;;;;;;2.38;0.70;;;20.00;94.90;;;;;;6265188;22;20007;-73
2022/09/16 12:23:18;;;;;;;3.17;1.08;;;19.90;94.90;;;;;;6266492;22;20469;-72
2022/09/16 12:25:59;;;;;;;1.05;0.60;;;19.90;95.40;;;;;;6266008;22;20011;-72
2022/09/16 12:28:31;;;;;;;1.95;0.70;;;19.90;95.00;;;;;;6262312;22;20445;-72
2022/09/16 12:31:05;;;;;;;1.67;0.80;;;20.00;95.00;;;;;;6265752;22;20089;-72
2022/09/16 12:33:39;;;;;;;1.90;0.80;;;20.00;94.90;;;;;;6267336;22;20012;-73
2022/09/16 12:36:09;;;;;;;1.08;0.80;;;20.00;94.90;;;;;;6266252;22;19992;-72
2022/09/16 12:38:36;;;;;;;1.55;0.77;;;20.00;95.10;;;;;;6267053;22;20004;-73
2022/09/16 12:41:20;;;;;;;1.95;1.00;;;20.00;95.80;;;;;;6266659;22;20377;-73
2022/09/16 12:44:16;;;;;;;1.08;0.70;;;20.10;95.70;;;;;;6265616;22;20049;-72
2022/09/16 12:47:06;;;;;;;1.88;0.90;;;20.20;95.40;;;;;;6264619;22;20031;-69
2022/09/16 12:50:09;;;;;;;3.60;1.15;;;20.20;96.30;;;;;;6264473;22;20004;-70
2022/09/16 12:52:56;;;;;;;3.75;1.02;;;20.20;97.00;;;;;;6256983;22;20011;-72
2022/09/16 12:55:53;;;;;;;3.00;1.00;;;20.20;96.30;;;;;;6252732;22;20015;-71
2022/09/16 12:58:36;;;;;;;3.50;0.93;;;20.20;96.30;;;;;;6256093;22;20006;-71
2022/09/16 13:01:21;;;;;;;2.08;1.35;;;20.10;97.00;;;;;;6256811;22;20007;-70
2022/09/16 13:04:03;;;;;;;2.88;1.02;;;20.10;96.30;;;;;;6259197;22;20022;-72
2022/09/16 13:06:36;;;;;;;4.35;1.20;;;20.10;97.20;;;;;;6254802;22;20025;-71
2022/09/16 13:09:22;;;;;;;3.25;1.02;;;20.20;97.40;;;;;;6260737;22;20008;-71
2022/09/16 13:11:58;;;;;;;2.53;1.42;;;20.20;97.50;;;;;;6256857;22;20011;-72
2022/09/16 13:14:31;;;;;;;2.22;1.15;;;20.20;97.60;;;;;;6263651;22;20008;-72
2022/09/16 13:16:59;;;;;;;2.55;1.00;;;20.40;98.00;;;;;;6233796;22;20095;-72
2022/09/16 13:19:51;;;;;;;2.90;1.30;;;20.60;98.40;;;;;;6260784;22;20007;-75